Belvidere, NC (27919)

10:38 AM EDT on March 28, 2015 (GMT -0400)
Northeast Landing | | Change Station
CLOSE
Current Station
Personal Weather Station
Location: Elizabeth City, NC
Elevation: 16 ft
Nearby Weather Stations

Elev 16 ft 36.37 °N, 76.30 °W | Updated 13 minutes ago

Mostly Cloudy
Mostly Cloudy
41.9 °F
Feels Like 37 °F
N
8.3
Wind Variable Wind from WSW

Today
High -- | Low -- °F
--% Chance of Precip.
Yesterday
High -- | Low -- °F
Precip. -- in
6:58 AM 7:24 PM
Waxing Gibbous, 63% visible
Pressure 29.96 in
Visibility 10.0 miles
Clouds Overcast 6000 ft
Windchill 37 °F
Dew Point 28 °F
Humidity 58%
Rainfall 0.00 in
Snow Depth Not available.
UV 1 out of 12
Pollen 9.50 out of 12
Air Quality Not available.
Flu Activity Not available.
METAR KECG 281354Z 31014KT 10SM OVC060 05/M02 A2996 RMK AO2 SLP145 T00501017

More Conditions Fewer Conditions

Pressure 29.96 in
Visibility 10.0 miles
Clouds Overcast 6000 ft
Windchill 37 °F
Dew Point 28 °F
Humidity 58%
Rainfall 0.00 in
Snow Depth Not available.
UV 1 out of 12
Pollen 9.50 out of 12
Air Quality Not available.
Flu Activity Not available.
METAR KECG 281354Z 31014KT 10SM OVC060 05/M02 A2996 RMK AO2 SLP145 T00501017

More Conditions Fewer Conditions

10-Day Weather Forecast

Almanac

Astronomy

Mar. 28, 2015 Rise Set
Actual Time
Civil Twilight
Nautical Twilight
Astronomical Twilight
Moon
Length of Visible Light
Length of Day
Tomorrow will be .
, % of the Moon is Illuminated

Today's Extremes

State Highs State Lows

Community

WunderPhotos

Upload Photos

1,808,986 photos uploaded!

WunderBlogs® & News

Nearby

Air Quality

  Air Quality AQ Index Pollutant
Not available.

Snow Depth

Station Depth Elevation

Earthquake Activity

City Distance Mag. Time & Date
Minimum magnitude displayed is 2.5.

Coastal Water Temperatures

Place Temperature

Stations

Nearby Weather Stations

Station Location Temp. Windchill Dew Point Humidity Wind Precip. Elev Updated Type